sensor_id;sensor_type;location;lat;lon;timestamp;P1;durP1;ratioP1;P2;durP2;ratioP2
69714;SDS011;56981;53.532;49.398;2023-02-15T00:00:31;6.88;;;2.95;;
69714;SDS011;56981;53.532;49.398;2023-02-15T00:02:57;8.93;;;3.65;;
69714;SDS011;56981;53.532;49.398;2023-02-15T00:05:23;7.18;;;3.75;;
69714;SDS011;56981;53.532;49.398;2023-02-15T00:07:49;2.17;;;1.65;;
69714;SDS011;56981;53.532;49.398;2023-02-15T00:10:15;8.88;;;4.15;;
69714;SDS011;56981;53.532;49.398;2023-02-15T00:12:42;14.90;;;5.13;;
69714;SDS011;56981;53.532;49.398;2023-02-15T00:15:08;12.52;;;4.38;;
69714;SDS011;56981;53.532;49.398;2023-02-15T00:17:34;3.63;;;1.40;;
69714;SDS011;56981;53.532;49.398;2023-02-15T00:20:00;7.03;;;3.22;;
69714;SDS011;56981;53.532;49.398;2023-02-15T00:22:26;4.57;;;2.42;;
69714;SDS011;56981;53.532;49.398;2023-02-15T00:24:52;12.80;;;4.93;;
69714;SDS011;56981;53.532;49.398;2023-02-15T00:27:18;9.68;;;4.30;;
69714;SDS011;56981;53.532;49.398;2023-02-15T00:29:46;0.57;;;0.57;;
69714;SDS011;56981;53.532;49.398;2023-02-15T00:32:12;5.28;;;2.05;;
69714;SDS011;56981;53.532;49.398;2023-02-15T00:34:38;9.88;;;4.57;;
69714;SDS011;56981;53.532;49.398;2023-02-15T00:37:04;1.88;;;1.08;;
69714;SDS011;56981;53.532;49.398;2023-02-15T00:39:30;7.32;;;4.28;;
69714;SDS011;56981;53.532;49.398;2023-02-15T00:41:56;10.98;;;4.03;;
69714;SDS011;56981;53.532;49.398;2023-02-15T00:44:22;1.42;;;1.23;;
69714;SDS011;56981;53.532;49.398;2023-02-15T00:46:48;8.30;;;2.88;;
69714;SDS011;56981;53.532;49.398;2023-02-15T00:49:14;12.07;;;5.05;;
69714;SDS011;56981;53.532;49.398;2023-02-15T00:51:40;12.88;;;4.00;;
69714;SDS011;56981;53.532;49.398;2023-02-15T00:54:06;5.35;;;2.38;;
69714;SDS011;56981;53.532;49.398;2023-02-15T00:56:33;4.38;;;2.38;;
69714;SDS011;56981;53.532;49.398;2023-02-15T00:58:59;8.18;;;3.13;;
69714;SDS011;56981;53.532;49.398;2023-02-15T01:01:25;6.30;;;2.35;;
69714;SDS011;56981;53.532;49.398;2023-02-15T01:03:51;12.07;;;1.90;;
69714;SDS011;56981;53.532;49.398;2023-02-15T01:06:18;6.72;;;2.40;;
69714;SDS011;56981;53.532;49.398;2023-02-15T01:08:44;2.72;;;1.40;;
69714;SDS011;56981;53.532;49.398;2023-02-15T01:11:12;5.72;;;2.53;;
69714;SDS011;56981;53.532;49.398;2023-02-15T01:13:41;1.50;;;1.20;;
69714;SDS011;56981;53.532;49.398;2023-02-15T01:16:07;4.43;;;1.98;;
69714;SDS011;56981;53.532;49.398;2023-02-15T01:18:34;5.63;;;3.10;;
69714;SDS011;56981;53.532;49.398;2023-02-15T01:21:00;11.05;;;3.45;;
69714;SDS011;56981;53.532;49.398;2023-02-15T01:23:34;2.03;;;0.95;;
69714;SDS011;56981;53.532;49.398;2023-02-15T01:26:04;4.30;;;2.35;;
69714;SDS011;56981;53.532;49.398;2023-02-15T01:28:30;7.70;;;2.95;;
69714;SDS011;56981;53.532;49.398;2023-02-15T01:30:56;3.65;;;2.63;;
69714;SDS011;56981;53.532;49.398;2023-02-15T01:33:22;5.95;;;3.33;;
69714;SDS011;56981;53.532;49.398;2023-02-15T01:35:48;8.73;;;3.80;;
69714;SDS011;56981;53.532;49.398;2023-02-15T01:38:21;4.97;;;3.08;;
69714;SDS011;56981;53.532;49.398;2023-02-15T01:40:46;7.70;;;4.10;;
69714;SDS011;56981;53.532;49.398;2023-02-15T01:43:16;13.30;;;5.30;;
69714;SDS011;56981;53.532;49.398;2023-02-15T01:45:43;11.13;;;5.20;;
69714;SDS011;56981;53.532;49.398;2023-02-15T01:48:18;7.53;;;4.18;;
69714;SDS011;56981;53.532;49.398;2023-02-15T01:50:53;12.30;;;6.03;;
69714;SDS011;56981;53.532;49.398;2023-02-15T01:53:27;10.73;;;4.90;;
69714;SDS011;56981;53.532;49.398;2023-02-15T01:55:59;8.95;;;4.40;;
69714;SDS011;56981;53.532;49.398;2023-02-15T01:58:30;10.90;;;3.92;;
69714;SDS011;56981;53.532;49.398;2023-02-15T02:00:59;11.23;;;3.30;;
69714;SDS011;56981;53.532;49.398;2023-02-15T02:04:13;9.50;;;4.05;;
69714;SDS011;56981;53.532;49.398;2023-02-15T02:06:15;4.25;;;1.60;;
69714;SDS011;56981;53.532;49.398;2023-02-15T02:08:41;5.97;;;3.65;;
69714;SDS011;56981;53.532;49.398;2023-02-15T02:11:11;10.15;;;5.30;;
69714;SDS011;56981;53.532;49.398;2023-02-15T02:13:38;12.23;;;4.57;;
69714;SDS011;56981;53.532;49.398;2023-02-15T02:16:23;9.30;;;3.55;;
69714;SDS011;56981;53.532;49.398;2023-02-15T02:21:28;12.73;;;5.38;;
69714;SDS011;56981;53.532;49.398;2023-02-15T02:35:30;18.50;;;8.73;;
69714;SDS011;56981;53.532;49.398;2023-02-15T02:41:01;12.05;;;4.97;;
69714;SDS011;56981;53.532;49.398;2023-02-15T02:46:35;14.10;;;6.30;;
69714;SDS011;56981;53.532;49.398;2023-02-15T02:49:09;16.95;;;5.85;;
69714;SDS011;56981;53.532;49.398;2023-02-15T02:51:36;7.82;;;4.25;;
69714;SDS011;56981;53.532;49.398;2023-02-15T02:54:04;20.65;;;8.13;;
69714;SDS011;56981;53.532;49.398;2023-02-15T02:56:42;14.32;;;6.70;;
69714;SDS011;56981;53.532;49.398;2023-02-15T02:59:17;20.08;;;9.43;;
69714;SDS011;56981;53.532;49.398;2023-02-15T03:01:54;23.35;;;8.18;;
69714;SDS011;56981;53.532;49.398;2023-02-15T03:07:09;20.10;;;6.63;;
69714;SDS011;56981;53.532;49.398;2023-02-15T03:09:44;16.20;;;7.28;;
69714;SDS011;56981;53.532;49.398;2023-02-15T03:12:15;24.85;;;9.90;;
69714;SDS011;56981;53.532;49.398;2023-02-15T03:14:44;17.45;;;8.43;;
69714;SDS011;56981;53.532;49.398;2023-02-15T03:17:14;27.63;;;11.32;;
69714;SDS011;56981;53.532;49.398;2023-02-15T03:19:44;17.45;;;7.18;;
69714;SDS011;56981;53.532;49.398;2023-02-15T03:22:14;19.20;;;6.82;;
69714;SDS011;56981;53.532;49.398;2023-02-15T03:24:47;26.83;;;10.80;;
69714;SDS011;56981;53.532;49.398;2023-02-15T03:27:23;25.23;;;10.00;;
69714;SDS011;56981;53.532;49.398;2023-02-15T03:29:53;25.90;;;10.43;;
69714;SDS011;56981;53.532;49.398;2023-02-15T03:32:23;22.85;;;8.10;;
69714;SDS011;56981;53.532;49.398;2023-02-15T03:34:51;18.02;;;9.32;;
69714;SDS011;56981;53.532;49.398;2023-02-15T03:40:23;15.50;;;6.63;;
69714;SDS011;56981;53.532;49.398;2023-02-15T03:43:43;9.82;;;5.22;;
69714;SDS011;56981;53.532;49.398;2023-02-15T03:48:52;17.27;;;5.90;;
69714;SDS011;56981;53.532;49.398;2023-02-15T03:51:31;14.13;;;6.95;;
69714;SDS011;56981;53.532;49.398;2023-02-15T03:54:05;18.40;;;7.35;;
69714;SDS011;56981;53.532;49.398;2023-02-15T03:57:11;21.55;;;8.38;;
69714;SDS011;56981;53.532;49.398;2023-02-15T04:00:03;14.15;;;5.40;;
69714;SDS011;56981;53.532;49.398;2023-02-15T04:03:19;18.80;;;8.55;;
69714;SDS011;56981;53.532;49.398;2023-02-15T04:05:56;28.90;;;12.45;;
69714;SDS011;56981;53.532;49.398;2023-02-15T04:08:22;26.80;;;9.95;;
69714;SDS011;56981;53.532;49.398;2023-02-15T04:11:08;17.35;;;8.70;;
69714;SDS011;56981;53.532;49.398;2023-02-15T04:13:34;20.30;;;9.02;;
69714;SDS011;56981;53.532;49.398;2023-02-15T04:16:00;14.27;;;5.38;;
69714;SDS011;56981;53.532;49.398;2023-02-15T04:18:33;15.90;;;5.53;;
69714;SDS011;56981;53.532;49.398;2023-02-15T04:21:20;15.20;;;6.50;;
69714;SDS011;56981;53.532;49.398;2023-02-15T04:24:06;8.82;;;2.88;;
69714;SDS011;56981;53.532;49.398;2023-02-15T04:26:50;3.58;;;2.10;;
69714;SDS011;56981;53.532;49.398;2023-02-15T04:29:20;9.38;;;3.97;;
69714;SDS011;56981;53.532;49.398;2023-02-15T04:31:47;9.13;;;2.90;;
69714;SDS011;56981;53.532;49.398;2023-02-15T04:34:14;8.38;;;2.78;;
69714;SDS011;56981;53.532;49.398;2023-02-15T04:36:40;7.30;;;2.80;;
69714;SDS011;56981;53.532;49.398;2023-02-15T04:39:07;7.72;;;2.75;;
69714;SDS011;56981;53.532;49.398;2023-02-15T04:41:34;5.05;;;2.63;;
69714;SDS011;56981;53.532;49.398;2023-02-15T04:44:00;3.63;;;1.92;;
69714;SDS011;56981;53.532;49.398;2023-02-15T04:46:26;6.20;;;2.75;;
69714;SDS011;56981;53.532;49.398;2023-02-15T04:48:53;5.18;;;1.92;;
69714;SDS011;56981;53.532;49.398;2023-02-15T04:51:19;8.32;;;3.03;;
69714;SDS011;56981;53.532;49.398;2023-02-15T04:53:46;7.13;;;3.83;;
69714;SDS011;56981;53.532;49.398;2023-02-15T04:56:11;14.18;;;3.28;;
69714;SDS011;56981;53.532;49.398;2023-02-15T04:58:38;8.90;;;3.50;;
69714;SDS011;56981;53.532;49.398;2023-02-15T05:01:07;7.63;;;3.45;;
69714;SDS011;56981;53.532;49.398;2023-02-15T05:03:33;8.68;;;3.70;;
69714;SDS011;56981;53.532;49.398;2023-02-15T05:06:00;5.93;;;2.97;;
69714;SDS011;56981;53.532;49.398;2023-02-15T05:08:26;6.47;;;3.03;;
69714;SDS011;56981;53.532;49.398;2023-02-15T05:10:52;4.53;;;2.05;;
69714;SDS011;56981;53.532;49.398;2023-02-15T05:13:18;4.25;;;2.90;;
69714;SDS011;56981;53.532;49.398;2023-02-15T05:15:48;7.35;;;2.90;;
69714;SDS011;56981;53.532;49.398;2023-02-15T05:18:19;7.78;;;3.20;;
69714;SDS011;56981;53.532;49.398;2023-02-15T05:20:46;8.63;;;3.53;;
69714;SDS011;56981;53.532;49.398;2023-02-15T05:23:13;9.25;;;3.33;;
69714;SDS011;56981;53.532;49.398;2023-02-15T05:25:39;8.60;;;3.60;;
69714;SDS011;56981;53.532;49.398;2023-02-15T05:28:25;9.43;;;3.55;;
69714;SDS011;56981;53.532;49.398;2023-02-15T05:33:37;4.75;;;2.55;;
69714;SDS011;56981;53.532;49.398;2023-02-15T05:36:04;10.45;;;3.65;;
69714;SDS011;56981;53.532;49.398;2023-02-15T05:38:30;7.95;;;3.63;;
69714;SDS011;56981;53.532;49.398;2023-02-15T05:40:57;1.65;;;1.55;;
69714;SDS011;56981;53.532;49.398;2023-02-15T05:43:23;5.18;;;1.95;;
69714;SDS011;56981;53.532;49.398;2023-02-15T05:45:50;4.90;;;2.42;;
69714;SDS011;56981;53.532;49.398;2023-02-15T05:48:19;7.80;;;3.58;;
69714;SDS011;56981;53.532;49.398;2023-02-15T05:50:56;6.25;;;2.53;;
69714;SDS011;56981;53.532;49.398;2023-02-15T05:53:23;3.97;;;1.55;;
69714;SDS011;56981;53.532;49.398;2023-02-15T05:55:49;10.25;;;3.05;;
69714;SDS011;56981;53.532;49.398;2023-02-15T05:58:15;5.28;;;2.50;;
69714;SDS011;56981;53.532;49.398;2023-02-15T06:00:41;4.63;;;2.33;;
69714;SDS011;56981;53.532;49.398;2023-02-15T06:03:07;10.13;;;4.07;;
69714;SDS011;56981;53.532;49.398;2023-02-15T06:05:33;8.55;;;3.03;;
69714;SDS011;56981;53.532;49.398;2023-02-15T06:07:59;7.43;;;3.85;;
69714;SDS011;56981;53.532;49.398;2023-02-15T06:10:25;8.43;;;4.18;;
69714;SDS011;56981;53.532;49.398;2023-02-15T06:12:51;7.70;;;3.30;;
69714;SDS011;56981;53.532;49.398;2023-02-15T06:15:17;9.57;;;2.85;;
69714;SDS011;56981;53.532;49.398;2023-02-15T06:17:43;7.57;;;3.05;;
69714;SDS011;56981;53.532;49.398;2023-02-15T06:20:09;6.72;;;1.98;;
69714;SDS011;56981;53.532;49.398;2023-02-15T06:22:35;9.65;;;3.25;;
69714;SDS011;56981;53.532;49.398;2023-02-15T06:25:01;9.23;;;3.20;;
69714;SDS011;56981;53.532;49.398;2023-02-15T06:27:28;10.93;;;3.40;;
69714;SDS011;56981;53.532;49.398;2023-02-15T06:29:54;10.75;;;3.72;;
69714;SDS011;56981;53.532;49.398;2023-02-15T06:32:20;11.25;;;3.60;;
69714;SDS011;56981;53.532;49.398;2023-02-15T06:34:46;9.35;;;3.22;;
69714;SDS011;56981;53.532;49.398;2023-02-15T06:37:12;8.60;;;3.90;;
69714;SDS011;56981;53.532;49.398;2023-02-15T06:39:38;8.93;;;4.00;;
69714;SDS011;56981;53.532;49.398;2023-02-15T06:42:04;8.73;;;3.38;;
69714;SDS011;56981;53.532;49.398;2023-02-15T06:44:30;7.68;;;3.35;;
69714;SDS011;56981;53.532;49.398;2023-02-15T06:46:56;11.68;;;3.55;;
69714;SDS011;56981;53.532;49.398;2023-02-15T06:49:22;6.30;;;2.85;;
69714;SDS011;56981;53.532;49.398;2023-02-15T06:51:48;10.88;;;3.28;;
69714;SDS011;56981;53.532;49.398;2023-02-15T06:54:14;7.20;;;3.58;;
69714;SDS011;56981;53.532;49.398;2023-02-15T06:56:40;5.78;;;2.67;;
69714;SDS011;56981;53.532;49.398;2023-02-15T06:59:07;9.52;;;3.92;;
69714;SDS011;56981;53.532;49.398;2023-02-15T07:01:33;8.48;;;4.07;;
69714;SDS011;56981;53.532;49.398;2023-02-15T07:03:59;10.23;;;3.65;;
69714;SDS011;56981;53.532;49.398;2023-02-15T07:06:25;10.88;;;3.80;;
69714;SDS011;56981;53.532;49.398;2023-02-15T07:08:51;9.70;;;4.18;;
69714;SDS011;56981;53.532;49.398;2023-02-15T07:11:17;7.22;;;3.80;;
69714;SDS011;56981;53.532;49.398;2023-02-15T07:14:02;11.25;;;3.75;;
69714;SDS011;56981;53.532;49.398;2023-02-15T07:16:28;6.30;;;3.00;;
69714;SDS011;56981;53.532;49.398;2023-02-15T07:18:54;7.90;;;3.13;;
69714;SDS011;56981;53.532;49.398;2023-02-15T07:21:20;8.50;;;3.58;;
69714;SDS011;56981;53.532;49.398;2023-02-15T07:23:46;4.28;;;2.22;;
69714;SDS011;56981;53.532;49.398;2023-02-15T07:26:12;7.47;;;2.83;;
69714;SDS011;56981;53.532;49.398;2023-02-15T07:28:38;11.48;;;3.70;;
69714;SDS011;56981;53.532;49.398;2023-02-15T07:31:04;10.82;;;3.90;;
69714;SDS011;56981;53.532;49.398;2023-02-15T07:33:31;5.15;;;2.22;;
69714;SDS011;56981;53.532;49.398;2023-02-15T07:35:59;8.65;;;3.58;;
69714;SDS011;56981;53.532;49.398;2023-02-15T07:38:29;8.10;;;3.65;;
69714;SDS011;56981;53.532;49.398;2023-02-15T07:41:00;6.60;;;3.47;;
69714;SDS011;56981;53.532;49.398;2023-02-15T07:43:32;10.60;;;3.97;;
69714;SDS011;56981;53.532;49.398;2023-02-15T07:46:00;7.10;;;3.75;;
69714;SDS011;56981;53.532;49.398;2023-02-15T07:48:27;11.35;;;4.03;;
69714;SDS011;56981;53.532;49.398;2023-02-15T07:50:53;9.73;;;3.60;;
69714;SDS011;56981;53.532;49.398;2023-02-15T07:53:19;1.58;;;0.95;;
69714;SDS011;56981;53.532;49.398;2023-02-15T07:55:45;9.43;;;3.65;;
69714;SDS011;56981;53.532;49.398;2023-02-15T07:58:11;5.20;;;2.10;;
69714;SDS011;56981;53.532;49.398;2023-02-15T08:00:37;9.20;;;4.35;;
69714;SDS011;56981;53.532;49.398;2023-02-15T08:03:26;8.45;;;3.08;;
69714;SDS011;56981;53.532;49.398;2023-02-15T08:05:58;8.10;;;3.20;;
69714;SDS011;56981;53.532;49.398;2023-02-15T08:08:25;6.60;;;3.00;;
69714;SDS011;56981;53.532;49.398;2023-02-15T08:11:06;12.18;;;4.22;;
69714;SDS011;56981;53.532;49.398;2023-02-15T08:14:05;9.32;;;3.85;;
69714;SDS011;56981;53.532;49.398;2023-02-15T08:16:43;6.60;;;2.80;;
69714;SDS011;56981;53.532;49.398;2023-02-15T08:19:11;6.75;;;2.38;;
69714;SDS011;56981;53.532;49.398;2023-02-15T08:21:51;6.78;;;2.90;;
69714;SDS011;56981;53.532;49.398;2023-02-15T08:24:19;7.90;;;3.22;;
69714;SDS011;56981;53.532;49.398;2023-02-15T08:26:47;5.00;;;3.03;;
69714;SDS011;56981;53.532;49.398;2023-02-15T08:29:15;7.03;;;3.50;;
69714;SDS011;56981;53.532;49.398;2023-02-15T08:31:42;4.85;;;2.85;;
69714;SDS011;56981;53.532;49.398;2023-02-15T08:34:09;7.13;;;3.38;;
69714;SDS011;56981;53.532;49.398;2023-02-15T08:36:38;5.90;;;2.65;;
69714;SDS011;56981;53.532;49.398;2023-02-15T08:39:05;6.22;;;3.22;;
69714;SDS011;56981;53.532;49.398;2023-02-15T08:41:32;7.38;;;2.83;;
69714;SDS011;56981;53.532;49.398;2023-02-15T08:44:00;7.32;;;3.10;;
69714;SDS011;56981;53.532;49.398;2023-02-15T08:46:29;7.43;;;3.28;;
69714;SDS011;56981;53.532;49.398;2023-02-15T08:48:57;6.78;;;2.92;;
69714;SDS011;56981;53.532;49.398;2023-02-15T08:51:25;7.68;;;3.58;;
69714;SDS011;56981;53.532;49.398;2023-02-15T08:54:12;8.05;;;3.05;;
69714;SDS011;56981;53.532;49.398;2023-02-15T08:56:40;8.63;;;3.50;;
69714;SDS011;56981;53.532;49.398;2023-02-15T08:59:11;8.60;;;3.15;;
69714;SDS011;56981;53.532;49.398;2023-02-15T09:01:39;5.47;;;2.50;;
69714;SDS011;56981;53.532;49.398;2023-02-15T09:04:06;5.70;;;3.10;;
69714;SDS011;56981;53.532;49.398;2023-02-15T09:06:38;9.77;;;3.17;;
69714;SDS011;56981;53.532;49.398;2023-02-15T09:09:06;7.07;;;3.10;;
69714;SDS011;56981;53.532;49.398;2023-02-15T09:11:33;4.90;;;2.53;;
69714;SDS011;56981;53.532;49.398;2023-02-15T09:14:03;4.85;;;2.33;;
69714;SDS011;56981;53.532;49.398;2023-02-15T09:16:32;9.00;;;3.10;;
69714;SDS011;56981;53.532;49.398;2023-02-15T09:18:59;8.13;;;3.58;;
69714;SDS011;56981;53.532;49.398;2023-02-15T09:21:30;8.50;;;3.63;;
69714;SDS011;56981;53.532;49.398;2023-02-15T09:23:57;9.00;;;3.30;;
69714;SDS011;56981;53.532;49.398;2023-02-15T09:26:26;6.15;;;2.63;;
69714;SDS011;56981;53.532;49.398;2023-02-15T09:28:54;6.30;;;2.60;;
69714;SDS011;56981;53.532;49.398;2023-02-15T09:31:26;8.43;;;4.45;;
69714;SDS011;56981;53.532;49.398;2023-02-15T09:33:54;8.07;;;4.00;;
69714;SDS011;56981;53.532;49.398;2023-02-15T09:38:57;3.97;;;1.88;;
69714;SDS011;56981;53.532;49.398;2023-02-15T09:49:54;7.13;;;2.95;;
69714;SDS011;56981;53.532;49.398;2023-02-15T10:06:31;6.97;;;2.63;;
69714;SDS011;56981;53.532;49.398;2023-02-15T10:14:39;5.72;;;2.80;;
69714;SDS011;56981;53.532;49.398;2023-02-15T10:22:47;6.82;;;2.42;;
69714;SDS011;56981;53.532;49.398;2023-02-15T10:25:29;4.80;;;2.78;;
69714;SDS011;56981;53.532;49.398;2023-02-15T10:28:31;7.75;;;3.67;;
69714;SDS011;56981;53.532;49.398;2023-02-15T10:33:46;8.98;;;3.55;;
69714;SDS011;56981;53.532;49.398;2023-02-15T10:44:44;5.40;;;2.72;;
69714;SDS011;56981;53.532;49.398;2023-02-15T10:50:45;5.63;;;2.60;;
69714;SDS011;56981;53.532;49.398;2023-02-15T11:04:22;4.35;;;1.90;;
69714;SDS011;56981;53.532;49.398;2023-02-15T11:06:59;6.55;;;2.78;;
69714;SDS011;56981;53.532;49.398;2023-02-15T11:12:01;7.80;;;2.65;;
69714;SDS011;56981;53.532;49.398;2023-02-15T11:17:01;4.68;;;2.33;;
69714;SDS011;56981;53.532;49.398;2023-02-15T11:19:33;6.15;;;2.10;;
69714;SDS011;56981;53.532;49.398;2023-02-15T11:22:04;4.72;;;2.22;;
69714;SDS011;56981;53.532;49.398;2023-02-15T11:24:42;6.07;;;2.60;;
69714;SDS011;56981;53.532;49.398;2023-02-15T11:29:52;2.78;;;1.83;;
69714;SDS011;56981;53.532;49.398;2023-02-15T11:32:30;6.80;;;3.25;;
69714;SDS011;56981;53.532;49.398;2023-02-15T11:40:27;4.93;;;2.03;;
69714;SDS011;56981;53.532;49.398;2023-02-15T11:42:58;7.63;;;4.53;;
69714;SDS011;56981;53.532;49.398;2023-02-15T11:45:30;7.43;;;2.97;;
69714;SDS011;56981;53.532;49.398;2023-02-15T11:47:58;4.90;;;2.08;;
69714;SDS011;56981;53.532;49.398;2023-02-15T11:50:26;8.98;;;3.90;;
69714;SDS011;56981;53.532;49.398;2023-02-15T11:53:02;8.52;;;3.92;;
69714;SDS011;56981;53.532;49.398;2023-02-15T11:55:36;4.70;;;2.22;;
69714;SDS011;56981;53.532;49.398;2023-02-15T11:58:12;7.85;;;3.47;;
69714;SDS011;56981;53.532;49.398;2023-02-15T12:01:00;7.43;;;3.40;;
69714;SDS011;56981;53.532;49.398;2023-02-15T12:03:39;9.70;;;2.90;;
69714;SDS011;56981;53.532;49.398;2023-02-15T12:06:16;6.95;;;2.67;;
69714;SDS011;56981;53.532;49.398;2023-02-15T12:09:02;10.73;;;2.88;;
69714;SDS011;56981;53.532;49.398;2023-02-15T12:11:36;6.45;;;2.85;;
69714;SDS011;56981;53.532;49.398;2023-02-15T12:14:07;4.25;;;2.42;;
69714;SDS011;56981;53.532;49.398;2023-02-15T12:21:59;6.57;;;2.30;;
69714;SDS011;56981;53.532;49.398;2023-02-15T12:24:28;6.38;;;3.20;;
69714;SDS011;56981;53.532;49.398;2023-02-15T12:26:59;5.22;;;2.58;;
69714;SDS011;56981;53.532;49.398;2023-02-15T12:29:27;3.70;;;2.22;;
69714;SDS011;56981;53.532;49.398;2023-02-15T12:32:00;6.25;;;2.58;;
69714;SDS011;56981;53.532;49.398;2023-02-15T12:34:30;4.45;;;1.88;;
69714;SDS011;56981;53.532;49.398;2023-02-15T12:37:15;5.20;;;2.45;;
69714;SDS011;56981;53.532;49.398;2023-02-15T12:40:01;5.95;;;3.42;;
69714;SDS011;56981;53.532;49.398;2023-02-15T12:42:47;3.63;;;1.58;;
69714;SDS011;56981;53.532;49.398;2023-02-15T12:50:41;4.53;;;2.65;;
69714;SDS011;56981;53.532;49.398;2023-02-15T12:53:16;6.57;;;3.03;;
69714;SDS011;56981;53.532;49.398;2023-02-15T12:55:57;6.55;;;3.13;;
69714;SDS011;56981;53.532;49.398;2023-02-15T13:01:28;5.32;;;2.38;;
69714;SDS011;56981;53.532;49.398;2023-02-15T13:04:06;4.30;;;1.80;;
69714;SDS011;56981;53.532;49.398;2023-02-15T13:06:50;4.63;;;2.05;;
69714;SDS011;56981;53.532;49.398;2023-02-15T13:09:37;6.30;;;3.97;;
69714;SDS011;56981;53.532;49.398;2023-02-15T13:14:46;4.97;;;2.28;;
69714;SDS011;56981;53.532;49.398;2023-02-15T13:17:17;5.53;;;3.38;;
69714;SDS011;56981;53.532;49.398;2023-02-15T13:19:49;4.22;;;2.13;;
69714;SDS011;56981;53.532;49.398;2023-02-15T13:22:39;3.65;;;1.80;;
69714;SDS011;56981;53.532;49.398;2023-02-15T13:27:51;5.90;;;2.60;;
69714;SDS011;56981;53.532;49.398;2023-02-15T13:30:24;3.85;;;1.85;;
69714;SDS011;56981;53.532;49.398;2023-02-15T13:32:54;4.72;;;2.08;;
69714;SDS011;56981;53.532;49.398;2023-02-15T13:35:24;6.15;;;2.88;;
69714;SDS011;56981;53.532;49.398;2023-02-15T13:40:26;3.83;;;2.08;;
69714;SDS011;56981;53.532;49.398;2023-02-15T13:42:58;4.28;;;2.33;;
69714;SDS011;56981;53.532;49.398;2023-02-15T13:51:35;3.25;;;1.73;;
69714;SDS011;56981;53.532;49.398;2023-02-15T13:55:20;3.75;;;2.17;;
69714;SDS011;56981;53.532;49.398;2023-02-15T14:02:58;6.22;;;3.35;;
69714;SDS011;56981;53.532;49.398;2023-02-15T14:08:45;4.55;;;2.88;;
69714;SDS011;56981;53.532;49.398;2023-02-15T14:17:07;3.03;;;1.67;;
69714;SDS011;56981;53.532;49.398;2023-02-15T14:23:07;2.47;;;1.63;;
69714;SDS011;56981;53.532;49.398;2023-02-15T14:25:45;10.35;;;4.00;;
69714;SDS011;56981;53.532;49.398;2023-02-15T14:28:40;4.30;;;2.70;;
69714;SDS011;56981;53.532;49.398;2023-02-15T14:31:45;12.82;;;4.78;;
69714;SDS011;56981;53.532;49.398;2023-02-15T14:35:02;10.18;;;5.47;;
69714;SDS011;56981;53.532;49.398;2023-02-15T14:37:10;6.22;;;2.67;;
69714;SDS011;56981;53.532;49.398;2023-02-15T14:43:11;6.55;;;2.67;;
69714;SDS011;56981;53.532;49.398;2023-02-15T14:48:48;8.55;;;3.42;;
69714;SDS011;56981;53.532;49.398;2023-02-15T14:52:00;5.18;;;3.25;;
69714;SDS011;56981;53.532;49.398;2023-02-15T14:54:08;3.28;;;1.77;;
69714;SDS011;56981;53.532;49.398;2023-02-15T14:56:35;5.95;;;3.30;;
69714;SDS011;56981;53.532;49.398;2023-02-15T14:59:14;1.75;;;0.98;;
69714;SDS011;56981;53.532;49.398;2023-02-15T15:01:42;10.20;;;3.55;;
69714;SDS011;56981;53.532;49.398;2023-02-15T15:04:26;8.55;;;3.92;;
69714;SDS011;56981;53.532;49.398;2023-02-15T15:07:09;5.18;;;2.38;;
69714;SDS011;56981;53.532;49.398;2023-02-15T15:10:36;6.70;;;3.22;;
69714;SDS011;56981;53.532;49.398;2023-02-15T15:12:59;5.25;;;2.80;;
69714;SDS011;56981;53.532;49.398;2023-02-15T15:16:23;4.45;;;2.17;;
69714;SDS011;56981;53.532;49.398;2023-02-15T15:18:57;7.60;;;2.88;;
69714;SDS011;56981;53.532;49.398;2023-02-15T15:49:30;3.50;;;1.90;;
69714;SDS011;56981;53.532;49.398;2023-02-15T15:52:01;6.70;;;3.75;;
69714;SDS011;56981;53.532;49.398;2023-02-15T15:54:28;6.15;;;1.98;;
69714;SDS011;56981;53.532;49.398;2023-02-15T15:56:57;9.57;;;2.63;;
69714;SDS011;56981;53.532;49.398;2023-02-15T15:59:27;4.45;;;2.45;;
69714;SDS011;56981;53.532;49.398;2023-02-15T16:01:56;3.92;;;2.35;;
69714;SDS011;56981;53.532;49.398;2023-02-15T16:04:29;6.35;;;2.25;;
69714;SDS011;56981;53.532;49.398;2023-02-15T16:09:54;13.35;;;5.45;;
69714;SDS011;56981;53.532;49.398;2023-02-15T16:12:22;2.78;;;1.40;;
69714;SDS011;56981;53.532;49.398;2023-02-15T16:14:49;6.35;;;3.85;;
69714;SDS011;56981;53.532;49.398;2023-02-15T16:17:19;5.32;;;2.70;;
69714;SDS011;56981;53.532;49.398;2023-02-15T16:19:47;7.20;;;3.25;;
69714;SDS011;56981;53.532;49.398;2023-02-15T16:22:18;4.10;;;2.28;;
69714;SDS011;56981;53.532;49.398;2023-02-15T16:27:43;8.05;;;3.53;;
69714;SDS011;56981;53.532;49.398;2023-02-15T16:32:46;5.38;;;1.75;;
69714;SDS011;56981;53.532;49.398;2023-02-15T16:35:18;3.25;;;1.65;;
69714;SDS011;56981;53.532;49.398;2023-02-15T16:37:46;9.23;;;3.70;;
69714;SDS011;56981;53.532;49.398;2023-02-15T16:40:57;6.70;;;3.25;;
69714;SDS011;56981;53.532;49.398;2023-02-15T16:43:15;7.32;;;2.90;;
69714;SDS011;56981;53.532;49.398;2023-02-15T16:45:45;9.02;;;3.55;;
69714;SDS011;56981;53.532;49.398;2023-02-15T16:48:22;9.13;;;3.45;;
69714;SDS011;56981;53.532;49.398;2023-02-15T16:50:54;8.82;;;3.35;;
69714;SDS011;56981;53.532;49.398;2023-02-15T16:53:26;4.65;;;2.70;;
69714;SDS011;56981;53.532;49.398;2023-02-15T16:55:57;7.80;;;3.35;;
69714;SDS011;56981;53.532;49.398;2023-02-15T16:58:49;8.82;;;4.32;;
69714;SDS011;56981;53.532;49.398;2023-02-15T17:01:15;9.45;;;3.08;;
69714;SDS011;56981;53.532;49.398;2023-02-15T17:03:42;6.47;;;3.90;;
69714;SDS011;56981;53.532;49.398;2023-02-15T17:06:24;6.28;;;2.83;;
69714;SDS011;56981;53.532;49.398;2023-02-15T17:08:53;10.35;;;2.83;;
69714;SDS011;56981;53.532;49.398;2023-02-15T17:11:33;8.27;;;2.33;;
69714;SDS011;56981;53.532;49.398;2023-02-15T17:16:29;10.20;;;2.58;;
69714;SDS011;56981;53.532;49.398;2023-02-15T17:19:01;10.60;;;3.47;;
69714;SDS011;56981;53.532;49.398;2023-02-15T17:21:34;4.53;;;2.15;;
69714;SDS011;56981;53.532;49.398;2023-02-15T17:24:05;9.55;;;3.45;;
69714;SDS011;56981;53.532;49.398;2023-02-15T17:26:35;4.53;;;2.33;;
69714;SDS011;56981;53.532;49.398;2023-02-15T17:32:12;6.20;;;2.53;;
69714;SDS011;56981;53.532;49.398;2023-02-15T17:34:50;3.60;;;1.92;;
69714;SDS011;56981;53.532;49.398;2023-02-15T17:40:24;7.45;;;2.65;;
69714;SDS011;56981;53.532;49.398;2023-02-15T17:42:52;8.18;;;4.22;;
69714;SDS011;56981;53.532;49.398;2023-02-15T17:45:18;6.22;;;2.53;;
69714;SDS011;56981;53.532;49.398;2023-02-15T17:47:46;5.88;;;3.47;;
69714;SDS011;56981;53.532;49.398;2023-02-15T17:50:21;8.50;;;3.60;;
69714;SDS011;56981;53.532;49.398;2023-02-15T17:52:49;14.23;;;4.07;;
69714;SDS011;56981;53.532;49.398;2023-02-15T17:55:17;12.35;;;4.28;;
69714;SDS011;56981;53.532;49.398;2023-02-15T17:58:02;6.68;;;2.88;;
69714;SDS011;56981;53.532;49.398;2023-02-15T18:00:30;8.25;;;3.78;;
69714;SDS011;56981;53.532;49.398;2023-02-15T18:03:15;8.13;;;4.03;;
69714;SDS011;56981;53.532;49.398;2023-02-15T18:06:01;6.97;;;3.15;;
69714;SDS011;56981;53.532;49.398;2023-02-15T18:08:45;6.05;;;3.30;;
69714;SDS011;56981;53.532;49.398;2023-02-15T18:11:30;11.68;;;3.40;;
69714;SDS011;56981;53.532;49.398;2023-02-15T18:14:03;5.93;;;2.72;;
69714;SDS011;56981;53.532;49.398;2023-02-15T18:16:36;9.60;;;3.88;;
69714;SDS011;56981;53.532;49.398;2023-02-15T18:19:17;10.05;;;3.85;;
69714;SDS011;56981;53.532;49.398;2023-02-15T18:21:48;3.60;;;2.15;;